Accueil
METAR-TAF:

METAR-TAF

Aéroports :

Aéroport de Dole-Jura

Dole, France

latitude: 47-02-34N, longitude: 005-26-06E, altitude: 196 m

Observation

Le bulletin a été fait il y a 11 minutes, à 10:00 UTC
Vent 8 kt de nord
Température 16°C
Humidité 72%
Pression 1026 hPa
Visibilité: 7000 m

METAR: LFGJ 201000Z AUTO 35008KT 7000 NSC 16/11 Q1026 TEMPO 4000 BR

Heure: 12:11 (10:11 UTC)

Prévision

Le bulletin a été fait il y a 2 heures et 11 minutes, à 08:00 UTC
Prévision valable du 20 à 08 UTC au 20 à 15 UTC
Vent 8 kt de nord/nord-ouest
Visibilité 10 km ou plus
pas de nuages en-dessous de 1500 mètres et pas de cumulonimbus.
Temporairement
du 20 à 08 UTC au 20 à 09 UTC
Visibilité: 3000 m
Nuages fragmentés à une hauteur de 500 ft
brume

TAF: LFGJ 200800Z 2008/2015 34008KT CAVOK TEMPO 2008/2009 3000 BR BKN005

Observations et prévisions météorologiques de plus de 4000 aéroports (messages METAR et TAF).

Les stations disponibles sont représentées par des disques jaunes et rouges sur la carte.

Passer la souris dessus pour voir le nom de la station.

Cliquer dessus pour voir les observations et prévisions météorologiques.

Pour changer de carte: cliquez sur les boutons verts avec une croix noire pour zoomer, sur le bouton vert avec un tiret pour effectuer un zoom arrière, ou sur les flèches vertes pour les cartes adjacentes.


METAR-TAF: